Flight Track Log - Related Links

Times and Time Zones

All times are in EDT time to prevent confusion due to time zone crossing. See the JBU33 flight status page for this flight to view local times or setup timezone preferences in your user account.

Time Position Orientation Groundspeed Altitude Reporting Facility
EDT Latitude Longitude Course Direction KTS MPH feet Rate Location/Type
Fri 01:34:31 PM 44.2528 -73.1819 196° South 296 341 9,900  Level Boston Center
Fri 01:35:00 PM 44.0552 -73.3038 194° South  Level FlightAware Approximate
Fri 01:35:31 PM 44.1669 -73.2186 197° South 320 368 10,000  Level Boston Center
Fri 01:36:00 PM 43.9720 -73.3316 194° South  Level FlightAware Approximate
Fri 01:36:31 PM 44.0750 -73.2578 197° South 337 388 10,600  Level Boston Center
Fri 01:37:00 PM 43.8891 -73.3611 196° South  Level FlightAware Approximate
Fri 01:37:31 PM 43.9811 -73.2969 197° South 345 397 13,800  Level Boston Center
Fri 01:38:00 PM 43.8069 -73.3941 196° South  Level FlightAware Approximate
Fri 01:38:31 PM 43.8828 -73.3389 197° South 358 412 16,500  Level Boston Center
Fri 01:39:00 PM 43.7247 -73.4270 196° South  Level FlightAware Approximate
Fri 01:39:31 PM 43.7803 -73.3833 197° South 382 440 19,000  Level Boston Center
Fri 01:40:31 PM 43.6633 -73.4303 196° South 397 457 21,200 2,100 Climbing Boston Center
Fri 01:41:31 PM 43.5522 -73.4742 196° South 403 464 23,200 2,000 Climbing Boston Center
Fri 01:42:31 PM 43.4414 -73.5211 197° South 413 475 25,200 1,700 Climbing Boston Center
Fri 01:43:31 PM 43.3264 -73.5644 195° South 423 487 26,600 1,350 Climbing Boston Center
Fri 01:44:31 PM 43.2072 -73.6164 198° South 435 501 27,900 700 Climbing Boston Center
Fri 01:45:31 PM 43.0961 -73.6628 197° South 446 513 28,000 50 Climbing Boston Center
Fri 01:46:31 PM 42.9769 -73.7114 197° South 456 525 28,000  Level Boston Center
Fri 01:47:31 PM 42.8511 -73.7628 197° South 462 532 28,000  Level Boston Center
Fri 01:48:31 PM 42.7258 -73.8025 193° South 463 533 28,000  Level Boston Center
Fri 01:49:31 PM 42.5878 -73.8303 188° South 463 533 28,000  Level Boston Center
Fri 01:50:31 PM 42.4714 -73.8136 174° South 468 539 28,000  Level Boston Center
Fri 01:51:31 PM 42.3378 -73.8164 181° South 474 545 28,000  Level Boston Center
Fri 01:52:31 PM 42.2086 -73.8192 181° South 474 545 28,000  Level Boston Center
Fri 01:53:31 PM 42.0794 -73.8192 180° South 474 545 28,000 -100 Level Boston Center
Fri 01:54:31 PM 41.9506 -73.7800 167° South 474 545 27,800 -504 Descending Boston Center
Fri 01:55:30 PM 41.8492 -73.7361 162° South 480 552 27,000 -1,000 Descending Boston Center
Fri 01:56:31 PM 41.6975 -73.6883 167° South 475 547 25,800 -1,492 Descending Boston Center
Fri 01:58:27 PM 41.5269 -73.8719 219° Southwest 376 433 22,600 -1,621 Descending New York Center
Fri 01:59:25 PM 41.4514 -73.9736 225° Southwest 384 442 21,100 -1,322 Descending New York Center
Fri 02:00:25 PM 41.3800 -74.0725 226° Southwest 384 442 20,000 -550 Descending New York Center
Fri 02:01:25 PM 41.2903 -74.1481 212° Southwest 384 442 20,000  Level New York Center
Fri 02:02:26 PM 41.2072 -74.2128 210° Southwest 389 448 20,000  Level New York Center
Fri 02:03:26 PM 41.1175 -74.2936 214° Southwest 395 455 20,000  Level New York Center
Fri 02:04:27 PM 41.0275 -74.3714 213° Southwest 395 455 20,000 -446 Level New York Center
Fri 02:05:27 PM 40.9244 -74.3358 165° South 353 406 19,100 -508 Descending New York Center
Fri 02:06:25 PM 40.9058 -74.1892 99° East 302 348 19,000 -68 Descending New York Center
Fri 02:06:55 PM 40.8833 -74.1167 112° Southeast 367 422 19,000 -467 Level New York TRACON
Fri 02:07:55 PM 40.8500 -74.0000 111° Southeast 363 418 18,300 -991 Descending New York TRACON
Fri 02:08:50 PM 40.8000 -73.9000 123° Southeast 359 413 17,100 -1,500 Descending New York TRACON
Fri 02:09:55 PM 40.7500 -73.7667 116° Southeast 359 413 15,300 -1,619 Descending New York TRACON
Fri 02:10:56 PM 40.7167 -73.6500 111° Southeast 359 413 13,700 -1,100 Descending New York TRACON
Fri 02:11:55 PM 40.6667 -73.5500 123° Southeast 326 375 13,100 -895 Descending New York TRACON
Fri 02:12:50 PM 40.6000 -73.5167 159° South 319 367 12,000 -1,409 Descending New York TRACON
Fri 02:13:50 PM 40.5167 -73.5333 189° South 299 344 10,400 -1,800 Descending New York TRACON
Fri 02:14:50 PM 40.4500 -73.5833 210° Southwest 287 330 8,400 -1,632 Descending New York TRACON
Fri 02:15:55 PM 40.3833 -73.6333 210° Southwest 287 330 7,000 -850 Descending New York TRACON
Fri 02:16:50 PM 40.3333 -73.7167 232° Southwest 280 322 6,700 -939 Descending New York TRACON
Fri 02:17:50 PM 40.3333 -73.8167 270° West 272 313 5,200 -1,350 Descending New York TRACON
Fri 02:18:50 PM 40.3500 -73.9000 285° West 267 307 4,000 -688 Descending New York TRACON
Fri 02:19:26 PM 40.3667 -73.9528 293° West 268 308 4,100 50 Climbing New York Center
Fri 02:20:50 PM 40.4500 -73.9833 344° North 226 260 4,100 -292 Level New York TRACON
Fri 02:21:50 PM 40.5167 -73.9667 11° North 228 262 3,400 -800 Descending New York TRACON
Fri 02:22:50 PM 40.5667 -73.9333 27° Northeast 204 235 2,500 -950 Descending New York TRACON
Fri 02:23:50 PM 40.6167 -73.9000 27° Northeast 194 223 1,500 -750 Descending New York TRACON
Fri 02:24:50 PM 40.6500 -73.8667 37° Northeast 146 168 1,000 -400 Descending New York TRACON
Fri 02:25:50 PM 40.6667 -73.8167 66° East 139 160 700 -300 Descending New York TRACON
Fri 02:27:00 PM 40.6398 -73.7789 98° East  Level Estimated
Fri 02:34:00 PM 40.6398 -73.7789 337° Northwest  Level Estimated
Fri 02:35:00 PM 40.6398 -73.7789 270° West  Level Estimated
Fri 02:36:00 PM 40.6398 -73.7789 270° West  Level Estimated

Login

Don't have an account? Register now (free) for customized features, flight alerts, and more!